createdAt,value
2022-10-30T00:02:02.940Z,15.70
2022-10-30T00:07:04.372Z,15.69
2022-10-30T00:12:05.828Z,15.65
2022-10-30T00:17:07.174Z,15.62
2022-10-30T00:22:09.523Z,15.56
2022-10-30T00:27:10.881Z,15.53
2022-10-30T00:32:12.273Z,15.45
2022-10-30T00:37:13.673Z,15.41
2022-10-30T00:42:16.601Z,15.41
2022-10-30T00:47:34.221Z,15.39
2022-10-30T00:52:40.451Z,15.33
2022-10-30T00:57:42.800Z,15.32
2022-10-30T01:02:44.682Z,15.27
2022-10-30T01:07:46.058Z,15.23
2022-10-30T01:12:49.599Z,15.18
2022-10-30T01:18:21.793Z,15.10
2022-10-30T01:23:41.738Z,15.12
2022-10-30T01:29:01.857Z,15.10
2022-10-30T01:34:09.843Z,15.07
2022-10-30T01:39:15.803Z,15.01
2022-10-30T01:44:28.475Z,14.98
2022-10-30T01:50:03.205Z,14.96
2022-10-30T01:55:09.292Z,14.96
2022-10-30T02:00:13.770Z,14.90
2022-10-30T02:05:27.013Z,14.84
2022-10-30T02:10:30.494Z,14.86
2022-10-30T02:15:32.225Z,14.84
2022-10-30T02:20:33.650Z,14.73
2022-10-30T02:25:35.137Z,14.75
2022-10-30T02:30:36.830Z,14.74
2022-10-30T02:35:38.199Z,14.71
2022-10-30T02:40:39.537Z,14.73
2022-10-30T02:45:40.866Z,14.72
2022-10-30T02:50:42.202Z,14.72
2022-10-30T02:55:43.593Z,14.71
2022-10-30T03:00:44.963Z,14.74
2022-10-30T03:05:46.281Z,14.74
2022-10-30T03:10:47.608Z,14.75
2022-10-30T03:15:48.941Z,14.77
2022-10-30T03:20:50.320Z,14.77
2022-10-30T03:25:53.923Z,14.71
2022-10-30T03:31:00.420Z,14.62
2022-10-30T03:36:02.103Z,14.59
2022-10-30T03:41:04.405Z,14.73
2022-10-30T03:46:05.835Z,14.72
2022-10-30T03:51:07.237Z,14.79
2022-10-30T03:56:09.943Z,14.85
2022-10-30T04:01:11.541Z,14.88
2022-10-30T04:06:13.034Z,14.87
2022-10-30T04:11:14.433Z,14.84
2022-10-30T04:16:15.835Z,14.77
2022-10-30T04:21:17.258Z,14.81
2022-10-30T04:26:18.593Z,14.77
2022-10-30T04:31:19.990Z,14.79
2022-10-30T04:36:24.139Z,14.80
2022-10-30T04:41:25.648Z,14.78
2022-10-30T04:46:27.037Z,14.75
2022-10-30T04:51:28.434Z,14.77
2022-10-30T04:56:29.848Z,14.76
2022-10-30T05:01:31.271Z,14.65
2022-10-30T05:06:33.193Z,14.71
2022-10-30T05:11:34.590Z,14.75
2022-10-30T05:16:36.016Z,14.76
2022-10-30T05:21:37.498Z,14.79
2022-10-30T05:26:38.840Z,14.78
2022-10-30T05:31:40.645Z,14.73
2022-10-30T05:36:42.018Z,14.68
2022-10-30T05:41:43.398Z,14.64
2022-10-30T05:46:44.880Z,14.62
2022-10-30T05:51:46.337Z,14.58
2022-10-30T05:56:47.669Z,14.48
2022-10-30T06:01:48.993Z,14.43
2022-10-30T06:06:50.341Z,14.45
2022-10-30T06:11:52.758Z,14.43
2022-10-30T06:16:54.090Z,14.43
2022-10-30T06:21:55.445Z,14.40
2022-10-30T06:26:56.894Z,14.36
2022-10-30T06:31:59.787Z,14.34
2022-10-30T06:37:03.741Z,14.30
2022-10-30T06:42:05.317Z,14.27
2022-10-30T06:47:06.658Z,14.25
2022-10-30T06:52:08.096Z,14.26
2022-10-30T06:57:09.441Z,14.31
2022-10-30T07:02:11.507Z,14.33
2022-10-30T07:07:13.846Z,14.36
2022-10-30T07:12:15.393Z,14.40
2022-10-30T07:17:16.756Z,14.44
2022-10-30T07:22:18.531Z,14.53
2022-10-30T07:27:19.865Z,14.62
2022-10-30T07:32:21.313Z,14.69
2022-10-30T07:37:22.633Z,14.80
2022-10-30T07:42:24.086Z,14.93
2022-10-30T07:47:25.455Z,15.06
2022-10-30T07:52:31.302Z,15.26
2022-10-30T07:57:40.629Z,15.43
2022-10-30T08:02:42.486Z,15.60
2022-10-30T08:07:46.541Z,15.79
2022-10-30T08:12:48.187Z,15.95
2022-10-30T08:17:50.666Z,16.13
2022-10-30T08:22:57.204Z,16.29
2022-10-30T08:28:04.836Z,16.38
2022-10-30T08:33:10.691Z,16.55
2022-10-30T08:38:11.985Z,16.70
2022-10-30T08:43:14.069Z,16.85
2022-10-30T08:48:16.514Z,17.03
2022-10-30T08:53:18.242Z,17.16
2022-10-30T08:58:19.595Z,17.31
2022-10-30T09:03:20.921Z,17.47
2022-10-30T09:08:22.324Z,17.66
2022-10-30T09:13:24.579Z,17.81
2022-10-30T09:18:25.949Z,18.01
2022-10-30T09:23:27.287Z,18.17
2022-10-30T09:28:28.631Z,18.31
2022-10-30T09:33:30.060Z,18.39
2022-10-30T09:38:31.394Z,18.66
2022-10-30T09:43:55.110Z,18.70
2022-10-30T09:49:20.210Z,18.94
2022-10-30T09:54:37.071Z,19.19
2022-10-30T10:00:01.344Z,19.37
2022-10-30T10:05:22.983Z,19.52
2022-10-30T10:10:44.220Z,19.69
2022-10-30T10:15:51.624Z,19.86
2022-10-30T10:20:58.165Z,20.07
2022-10-30T10:26:14.153Z,20.22
2022-10-30T10:31:38.170Z,20.44
2022-10-30T10:36:58.706Z,20.60
2022-10-30T10:42:24.317Z,20.84
2022-10-30T10:47:39.701Z,20.99
2022-10-30T10:52:47.530Z,21.14
2022-10-30T10:57:51.227Z,21.30
2022-10-30T11:03:09.306Z,21.37
2022-10-30T11:08:17.127Z,21.53
2022-10-30T11:13:18.486Z,21.68
2022-10-30T11:18:19.850Z,21.75
2022-10-30T11:23:31.167Z,21.89
2022-10-30T11:28:42.376Z,22.05
2022-10-30T11:33:43.896Z,22.09
2022-10-30T11:38:45.537Z,22.33
2022-10-30T11:43:49.115Z,22.46
2022-10-30T11:48:56.742Z,22.63
2022-10-30T11:53:58.413Z,22.80
2022-10-30T11:59:02.883Z,22.94
2022-10-30T12:04:33.666Z,23.07
2022-10-30T12:09:45.841Z,23.13
2022-10-30T12:14:47.313Z,23.23
2022-10-30T12:19:51.267Z,23.26
2022-10-30T12:24:53.136Z,23.45
2022-10-30T12:30:17.720Z,23.60
2022-10-30T12:35:35.940Z,23.72
2022-10-30T12:40:43.950Z,23.80
2022-10-30T12:45:48.796Z,23.89
2022-10-30T12:51:12.307Z,23.93
2022-10-30T12:56:19.626Z,23.91
2022-10-30T13:01:32.403Z,24.08
2022-10-30T13:06:42.127Z,24.20
2022-10-30T13:11:52.942Z,24.17
2022-10-30T13:16:54.318Z,24.19
2022-10-30T13:22:08.169Z,24.32
2022-10-30T13:27:28.182Z,24.43
2022-10-30T13:32:54.578Z,24.56
2022-10-30T13:38:33.294Z,24.53
2022-10-30T13:43:49.729Z,24.59
2022-10-30T13:48:59.901Z,24.59
2022-10-30T13:54:17.110Z,24.62
2022-10-30T13:59:47.448Z,24.58
2022-10-30T14:04:58.833Z,24.58
2022-10-30T14:10:39.244Z,24.44
2022-10-30T14:15:43.698Z,24.34
2022-10-30T14:20:49.874Z,24.18
2022-10-30T14:26:06.487Z,24.11
2022-10-30T14:31:33.880Z,23.94
2022-10-30T14:36:38.503Z,23.80
2022-10-30T14:41:54.896Z,23.55
2022-10-30T14:46:59.152Z,23.34
2022-10-30T14:52:29.883Z,23.18
2022-10-30T14:57:47.661Z,23.08
2022-10-30T15:03:06.938Z,22.98
2022-10-30T15:08:26.374Z,22.94
2022-10-30T15:13:27.938Z,22.86
2022-10-30T15:18:31.010Z,22.73
2022-10-30T15:23:41.804Z,22.49
2022-10-30T15:28:43.416Z,22.51
2022-10-30T15:33:44.992Z,22.50
2022-10-30T15:39:11.331Z,22.35
2022-10-30T15:49:32.659Z,22.05
2022-10-30T15:54:34.419Z,21.90
2022-10-30T15:59:35.962Z,21.72
2022-10-30T16:04:39.183Z,21.53
2022-10-30T16:10:01.883Z,21.35
2022-10-30T16:15:15.887Z,21.23
2022-10-30T16:20:17.682Z,21.04
2022-10-30T16:25:21.373Z,20.85
2022-10-30T16:30:23.787Z,20.63
2022-10-30T16:35:26.591Z,20.39
2022-10-30T16:40:29.066Z,20.21
2022-10-30T16:45:33.878Z,20.03
2022-10-30T16:50:37.257Z,19.81
2022-10-30T16:55:38.779Z,19.65
2022-10-30T17:00:42.079Z,19.46
2022-10-30T17:05:43.597Z,19.28
2022-10-30T17:10:47.889Z,19.10
2022-10-30T17:15:49.315Z,18.93
2022-10-30T17:21:11.587Z,18.64
2022-10-30T17:26:13.726Z,18.46
2022-10-30T17:31:18.198Z,18.38
2022-10-30T17:36:19.984Z,18.29
2022-10-30T17:41:21.388Z,18.16
2022-10-30T17:46:25.606Z,18.02
2022-10-30T17:51:27.115Z,17.91
2022-10-30T17:56:31.762Z,17.80
2022-10-30T18:01:33.386Z,17.66
2022-10-30T18:06:34.817Z,17.59
2022-10-30T18:11:36.902Z,17.51
2022-10-30T18:16:38.596Z,17.38
2022-10-30T18:21:40.219Z,17.28
2022-10-30T18:26:42.106Z,17.18
2022-10-30T18:31:43.533Z,17.07
2022-10-30T18:36:44.947Z,16.98
2022-10-30T18:41:47.361Z,16.87
2022-10-30T18:46:48.875Z,16.69
2022-10-30T18:51:50.263Z,16.64
2022-10-30T18:56:51.659Z,16.52
2022-10-30T19:01:53.240Z,16.46
2022-10-30T19:06:54.740Z,16.38
2022-10-30T19:11:56.500Z,16.23
2022-10-30T19:16:57.891Z,16.21
2022-10-30T19:21:59.368Z,16.15
2022-10-30T19:27:00.755Z,16.07
2022-10-30T19:32:02.138Z,16.02
2022-10-30T19:37:03.521Z,15.95
2022-10-30T19:42:05.030Z,15.85
2022-10-30T19:47:09.705Z,15.79
2022-10-30T19:52:11.119Z,15.71
2022-10-30T19:57:14.036Z,15.63
2022-10-30T20:02:15.471Z,15.50
2022-10-30T20:07:17.382Z,15.45
2022-10-30T20:12:18.795Z,15.44
2022-10-30T20:17:20.203Z,15.37
2022-10-30T20:22:27.151Z,15.31
2022-10-30T20:27:29.688Z,15.27
2022-10-30T20:32:31.163Z,15.21
2022-10-30T20:37:32.543Z,15.14
2022-10-30T20:42:37.180Z,15.07
2022-10-30T20:47:38.818Z,15.01
2022-10-30T20:52:40.534Z,14.94
2022-10-30T20:57:41.928Z,14.84
2022-10-30T21:02:43.424Z,14.75
2022-10-30T21:07:45.870Z,14.68
2022-10-30T21:12:47.257Z,14.59
2022-10-30T21:17:48.654Z,14.51
2022-10-30T21:22:49.992Z,14.47
2022-10-30T21:27:51.427Z,14.45
2022-10-30T21:32:52.979Z,14.40
2022-10-30T21:37:54.337Z,14.36
2022-10-30T21:42:58.550Z,14.32
2022-10-30T21:48:02.854Z,14.27
2022-10-30T21:53:04.206Z,14.21
2022-10-30T21:58:05.814Z,14.17
2022-10-30T22:03:10.299Z,14.07
2022-10-30T22:08:11.703Z,13.98
2022-10-30T22:13:13.119Z,13.97
2022-10-30T22:18:14.485Z,13.91
2022-10-30T22:23:15.899Z,13.88
2022-10-30T22:33:20.073Z,13.71
2022-10-30T22:38:21.448Z,13.59
2022-10-30T22:43:22.835Z,13.41
2022-10-30T22:48:24.173Z,13.51
2022-10-30T22:53:30.110Z,13.47
2022-10-30T22:58:31.433Z,13.41
2022-10-30T23:03:32.771Z,13.41
2022-10-30T23:08:34.803Z,13.34
2022-10-30T23:13:37.072Z,13.37
2022-10-30T23:18:38.559Z,13.38
2022-10-30T23:23:41.434Z,13.40
2022-10-30T23:28:43.645Z,13.40
2022-10-30T23:33:49.094Z,13.37
2022-10-30T23:38:52.806Z,13.36
2022-10-30T23:43:59.703Z,13.35
2022-10-30T23:49:02.266Z,13.35
2022-10-30T23:54:03.994Z,13.33
2022-10-30T23:59:05.365Z,13.29
